Time;durP1;ratioP1;P1;durP2;ratioP2;P2;SDS_P1;SDS_P2;PMS_P1;PMS_P2;Temp;Humidity;BMP_temperature;BMP_pressure;BME280_temperature;BME280_humidity;BME280_pressure;Samples;Min_cycle;Max_cycle;Signal;HPM_P1;HPM_P2
2022/09/20 00:01:09;;;;;;;1.90;1.55;;;12.50;99.90;;;;;;6068131;23;20228;-78
2022/09/20 00:03:37;;;;;;;3.30;1.55;;;12.50;99.90;;;;;;6068913;23;20200;-76
2022/09/20 00:06:05;;;;;;;1.48;1.33;;;12.50;99.90;;;;;;6067830;23;20208;-76
2022/09/20 00:08:33;;;;;;;2.00;1.80;;;12.40;99.90;;;;;;6069263;23;20211;-78
2022/09/20 00:11:01;;;;;;;2.03;1.65;;;12.40;99.90;;;;;;6068477;23;20204;-78
2022/09/20 00:13:31;;;;;;;2.65;2.15;;;12.40;99.90;;;;;;6068294;23;20549;-78
2022/09/20 00:15:58;;;;;;;2.83;2.08;;;12.40;99.90;;;;;;6068280;23;20224;-76
2022/09/20 00:18:26;;;;;;;3.47;2.20;;;12.40;99.90;;;;;;6068947;23;20272;-78
2022/09/20 00:20:53;;;;;;;2.08;1.67;;;12.40;99.90;;;;;;6068321;23;20211;-78
2022/09/20 00:23:21;;;;;;;2.92;1.58;;;12.40;99.90;;;;;;6068379;23;20232;-76
2022/09/20 00:25:55;;;;;;;1.65;1.40;;;12.40;99.90;;;;;;6068282;23;20200;-75
2022/09/20 00:28:22;;;;;;;1.52;1.33;;;12.40;99.90;;;;;;6068454;23;20202;-75
2022/09/20 00:30:52;;;;;;;1.50;1.35;;;12.30;99.90;;;;;;6068300;23;20212;-78
2022/09/20 00:33:19;;;;;;;3.03;1.50;;;12.30;99.90;;;;;;6067934;23;20211;-76
2022/09/20 00:35:48;;;;;;;2.20;1.63;;;12.30;99.90;;;;;;6068880;23;20565;-78
2022/09/20 00:38:16;;;;;;;1.52;1.20;;;12.30;99.90;;;;;;6067973;23;20204;-78
2022/09/20 00:40:44;;;;;;;1.55;1.45;;;12.30;99.90;;;;;;6068809;23;20207;-77
2022/09/20 00:43:14;;;;;;;2.95;1.40;;;12.30;99.90;;;;;;6067204;23;20235;-77
2022/09/20 00:45:41;;;;;;;1.73;1.38;;;12.30;99.90;;;;;;6068044;23;20466;-74
2022/09/20 00:48:15;;;;;;;2.70;1.73;;;12.30;99.90;;;;;;6067909;23;20215;-77
2022/09/20 00:50:46;;;;;;;6.18;1.90;;;12.20;99.90;;;;;;6068689;23;20204;-76
2022/09/20 00:53:15;;;;;;;1.60;1.50;;;12.20;99.90;;;;;;6067016;23;20656;-77
2022/09/20 00:55:49;;;;;;;4.10;1.85;;;12.20;99.90;;;;;;6068504;23;20657;-80
2022/09/20 00:58:17;;;;;;;3.42;1.60;;;12.20;99.90;;;;;;6067351;23;20267;-79
2022/09/20 01:00:45;;;;;;;2.03;1.50;;;12.20;99.90;;;;;;6068494;23;20203;-78
2022/09/20 01:03:19;;;;;;;2.17;1.40;;;12.20;99.90;;;;;;6067359;23;20267;-79
2022/09/20 01:05:46;;;;;;;1.40;1.20;;;12.20;99.90;;;;;;6068670;23;20527;-78
2022/09/20 01:08:13;;;;;;;1.60;1.50;;;12.20;99.90;;;;;;6056236;23;20232;-78
2022/09/20 01:10:41;;;;;;;1.50;1.40;;;12.10;99.90;;;;;;6068237;23;20207;-75
2022/09/20 01:13:08;;;;;;;2.05;1.38;;;12.10;99.90;;;;;;6067167;23;20208;-75
2022/09/20 01:15:40;;;;;;;2.47;1.40;;;12.10;99.90;;;;;;6068230;23;20230;-79
2022/09/20 01:18:09;;;;;;;1.30;1.20;;;12.10;99.90;;;;;;6068020;23;20204;-78
2022/09/20 01:20:42;;;;;;;2.20;1.23;;;12.10;99.90;;;;;;6068367;23;20549;-75
2022/09/20 01:23:31;;;;;;;1.75;1.10;;;12.10;99.90;;;;;;6067940;23;20664;-76
2022/09/20 01:26:28;;;;;;;1.58;1.48;;;12.10;99.90;;;;;;6068176;23;20271;-77
2022/09/20 01:29:05;;;;;;;3.85;1.70;;;12.10;99.90;;;;;;6067889;23;20679;-77
2022/09/20 01:31:35;;;;;;;2.30;1.40;;;12.10;99.90;;;;;;6067289;23;20295;-76
2022/09/20 01:34:07;;;;;;;1.60;1.25;;;12.10;99.90;;;;;;6067599;23;20699;-76
2022/09/20 01:36:42;;;;;;;1.63;1.50;;;12.10;99.90;;;;;;6067860;23;20219;-75
2022/09/20 01:39:18;;;;;;;1.88;1.52;;;12.00;99.90;;;;;;6067574;23;20271;-75
2022/09/20 01:41:52;;;;;;;2.65;1.60;;;12.00;99.90;;;;;;6068364;23;20230;-75
2022/09/20 01:44:28;;;;;;;1.80;1.42;;;12.00;99.90;;;;;;6053996;23;20212;-78
2022/09/20 01:47:00;;;;;;;2.05;1.70;;;12.00;99.90;;;;;;6067912;23;20203;-78
2022/09/20 01:49:39;;;;;;;2.42;1.55;;;12.00;99.90;;;;;;6068123;23;20703;-77
2022/09/20 01:52:37;;;;;;;3.25;1.60;;;12.00;99.90;;;;;;6068480;23;20675;-75
2022/09/20 01:55:35;;;;;;;3.25;1.50;;;12.00;99.90;;;;;;6053570;23;20700;-78
2022/09/20 01:58:38;;;;;;;1.88;1.30;;;12.00;99.90;;;;;;6067062;23;20525;-78
2022/09/20 02:01:25;;;;;;;1.98;1.40;;;12.00;99.90;;;;;;6053180;23;20667;-76
2022/09/20 02:04:20;;;;;;;2.15;1.50;;;11.90;99.90;;;;;;6068228;23;20224;-75
2022/09/20 02:07:04;;;;;;;1.20;1.10;;;11.90;99.90;;;;;;6067340;23;20645;-78
2022/09/20 02:09:59;;;;;;;3.85;3.35;;;11.90;99.90;;;;;;6068309;23;20208;-78
2022/09/20 02:12:55;;;;;;;2.75;1.60;;;11.90;99.90;;;;;;6067834;23;20208;-77
2022/09/20 02:15:46;;;;;;;2.17;1.30;;;11.90;99.90;;;;;;6069839;23;20267;-78
2022/09/20 02:18:32;;;;;;;1.15;1.00;;;11.90;99.90;;;;;;6069109;23;20300;-78
2022/09/20 02:21:05;;;;;;;1.33;1.23;;;11.90;99.90;;;;;;6069720;23;20275;-78
2022/09/20 02:23:42;;;;;;;2.17;1.30;;;11.90;99.90;;;;;;6069284;23;21031;-78
2022/09/20 02:26:28;;;;;;;1.42;1.10;;;11.90;99.90;;;;;;6069142;23;20655;-77
2022/09/20 02:29:06;;;;;;;2.17;1.52;;;11.90;99.90;;;;;;6069709;23;20537;-78
2022/09/20 02:31:53;;;;;;;2.70;1.25;;;11.90;99.90;;;;;;6069676;23;20203;-78
2022/09/20 02:34:43;;;;;;;1.42;1.33;;;12.00;99.90;;;;;;6069375;23;20255;-78
2022/09/20 02:37:36;;;;;;;2.10;1.45;;;12.00;99.90;;;;;;6068212;23;20549;-77
2022/09/20 02:40:20;;;;;;;1.40;1.30;;;12.00;99.90;;;;;;6069178;23;20211;-78
2022/09/20 02:42:58;;;;;;;1.80;1.20;;;12.00;99.90;;;;;;6069684;23;20212;-79
2022/09/20 02:45:34;;;;;;;1.20;1.10;;;12.00;99.90;;;;;;6070187;23;20648;-76
2022/09/20 02:48:04;;;;;;;1.15;1.05;;;12.00;99.90;;;;;;6069308;23;20219;-76
2022/09/20 02:50:44;;;;;;;3.63;1.48;;;12.00;99.90;;;;;;6069963;23;20204;-79
2022/09/20 02:53:25;;;;;;;2.08;1.10;;;12.10;99.90;;;;;;6069313;23;20552;-76
2022/09/20 02:56:03;;;;;;;1.30;1.20;;;12.10;99.90;;;;;;6069195;23;20569;-76
2022/09/20 02:58:44;;;;;;;2.95;1.10;;;12.10;99.90;;;;;;6069866;23;20204;-78
2022/09/20 03:01:25;;;;;;;3.80;1.50;;;12.10;99.90;;;;;;6068813;23;20300;-76
2022/09/20 03:04:02;;;;;;;2.88;1.35;;;12.20;99.90;;;;;;6069049;23;20648;-76
2022/09/20 03:06:40;;;;;;;1.60;1.25;;;12.20;99.90;;;;;;6069302;23;20212;-76
2022/09/20 03:09:20;;;;;;;1.40;1.30;;;12.20;99.90;;;;;;6069298;23;20660;-78
2022/09/20 03:11:58;;;;;;;1.08;0.98;;;12.20;99.90;;;;;;6053066;23;20212;-78
2022/09/20 03:14:36;;;;;;;4.30;1.05;;;12.20;99.90;;;;;;6067930;23;20204;-78
2022/09/20 03:17:15;;;;;;;1.40;1.30;;;12.20;99.90;;;;;;6068387;23;20203;-78
2022/09/20 03:20:00;;;;;;;1.10;1.00;;;12.20;99.90;;;;;;6068577;23;20224;-78
2022/09/20 03:22:41;;;;;;;0.90;0.90;;;12.20;99.90;;;;;;6068809;23;20215;-78
2022/09/20 03:25:36;;;;;;;1.50;1.40;;;12.20;99.90;;;;;;6068523;23;20203;-77
2022/09/20 03:28:50;;;;;;;1.33;1.23;;;12.20;99.90;;;;;;6069536;23;20203;-78
2022/09/20 03:31:28;;;;;;;1.65;1.50;;;12.20;99.90;;;;;;6069006;23;20633;-79
2022/09/20 03:34:06;;;;;;;3.00;1.23;;;12.20;99.90;;;;;;6068468;23;20259;-76
2022/09/20 03:36:53;;;;;;;1.40;1.30;;;12.20;99.90;;;;;;6069579;23;20236;-78
2022/09/20 03:39:42;;;;;;;1.33;1.23;;;12.30;99.90;;;;;;6068657;23;20275;-79
2022/09/20 03:42:16;;;;;;;1.30;1.20;;;12.30;99.90;;;;;;6068578;23;20239;-76
2022/09/20 03:45:01;;;;;;;1.90;1.00;;;12.30;99.90;;;;;;6068924;23;20200;-77
2022/09/20 03:47:45;;;;;;;1.95;1.27;;;12.30;99.90;;;;;;6068202;23;20211;-79
2022/09/20 03:50:33;;;;;;;1.40;1.10;;;12.30;99.90;;;;;;6068735;23;20262;-76
2022/09/20 03:53:30;;;;;;;2.67;1.58;;;12.30;99.90;;;;;;6068767;23;20208;-77
2022/09/20 03:56:46;;;;;;;1.33;1.10;;;12.30;99.90;;;;;;6068804;23;20287;-80
2022/09/20 03:59:30;;;;;;;1.38;1.20;;;12.30;99.90;;;;;;6009326;23;20225;-77
2022/09/20 04:02:21;;;;;;;1.08;0.95;;;12.30;99.90;;;;;;6060647;23;20209;-77
2022/09/20 04:04:53;;;;;;;1.20;1.10;;;12.40;99.90;;;;;;6057436;23;20516;-77
2022/09/20 04:07:26;;;;;;;1.77;1.00;;;12.40;99.90;;;;;;6067985;23;20646;-76
2022/09/20 04:10:17;;;;;;;1.25;1.15;;;12.40;99.90;;;;;;6069018;23;20224;-76
2022/09/20 04:12:57;;;;;;;1.38;1.20;;;12.40;99.90;;;;;;6068484;23;20688;-76
2022/09/20 04:15:35;;;;;;;1.30;1.15;;;12.40;99.90;;;;;;6053783;23;20243;-75
2022/09/20 04:18:10;;;;;;;1.50;1.30;;;12.40;99.90;;;;;;6068457;23;20605;-77
2022/09/20 04:20:45;;;;;;;1.33;1.02;;;12.40;99.90;;;;;;6069065;23;20219;-78
2022/09/20 04:23:35;;;;;;;2.58;1.40;;;12.40;99.90;;;;;;6068420;23;20215;-75
2022/09/20 04:26:04;;;;;;;1.80;1.33;;;12.40;99.90;;;;;;6053406;23;20211;-78
2022/09/20 04:28:39;;;;;;;2.10;1.80;;;12.50;99.90;;;;;;6069010;23;20671;-75
2022/09/20 04:31:19;;;;;;;2.30;1.33;;;12.50;99.90;;;;;;6066269;23;20200;-75
2022/09/20 04:33:52;;;;;;;2.40;1.50;;;12.40;99.90;;;;;;6068306;23;20196;-75
2022/09/20 04:36:34;;;;;;;1.80;1.45;;;12.40;99.90;;;;;;6068100;23;20220;-76
2022/09/20 04:39:15;;;;;;;1.58;1.45;;;12.40;99.90;;;;;;6068147;23;20251;-74
2022/09/20 04:42:29;;;;;;;1.50;1.40;;;12.40;99.90;;;;;;6068256;23;20267;-76
2022/09/20 04:45:39;;;;;;;1.23;1.10;;;12.50;99.90;;;;;;6068479;23;20283;-75
2022/09/20 04:48:55;;;;;;;3.00;1.83;;;12.40;99.90;;;;;;6044438;23;20260;-77
2022/09/20 04:51:53;;;;;;;1.70;1.55;;;12.50;99.90;;;;;;6069273;23;20208;-79
2022/09/20 04:54:50;;;;;;;3.30;1.50;;;12.40;99.90;;;;;;6068703;23;20207;-76
2022/09/20 04:58:04;;;;;;;2.20;1.80;;;12.40;99.90;;;;;;6067836;23;20204;-76
2022/09/20 05:00:49;;;;;;;1.48;1.38;;;12.40;99.90;;;;;;6051579;23;20204;-76
2022/09/20 05:03:42;;;;;;;3.35;1.45;;;12.40;99.90;;;;;;6067970;23;20204;-78
2022/09/20 05:06:37;;;;;;;1.63;1.40;;;12.40;99.90;;;;;;6069149;23;20689;-77
2022/09/20 05:09:30;;;;;;;1.75;1.40;;;12.40;99.90;;;;;;6067844;23;20207;-77
2022/09/20 05:12:29;;;;;;;1.45;1.17;;;12.40;99.90;;;;;;6067691;23;20212;-77
2022/09/20 05:15:23;;;;;;;2.05;1.90;;;12.40;99.90;;;;;;6067659;23;20236;-74
2022/09/20 05:18:15;;;;;;;4.93;1.70;;;12.40;99.90;;;;;;6051773;23;20279;-76
2022/09/20 05:21:07;;;;;;;1.92;1.63;;;12.40;99.90;;;;;;6068475;23;20281;-79
2022/09/20 05:23:50;;;;;;;1.55;1.45;;;12.40;99.90;;;;;;6068287;23;20271;-77
2022/09/20 05:26:29;;;;;;;1.65;1.50;;;12.40;99.90;;;;;;6068499;23;20204;-77
2022/09/20 05:29:02;;;;;;;2.40;1.80;;;12.50;99.90;;;;;;6068217;23;20211;-77
2022/09/20 05:31:39;;;;;;;3.22;1.70;;;12.50;99.90;;;;;;6067782;23;20271;-75
2022/09/20 05:34:16;;;;;;;4.75;2.95;;;12.50;99.90;;;;;;6067714;23;20552;-75
2022/09/20 05:36:55;;;;;;;3.78;3.38;;;12.50;99.90;;;;;;6068482;23;20212;-75
2022/09/20 05:39:36;;;;;;;4.55;3.53;;;12.50;99.90;;;;;;6067451;23;20516;-75
2022/09/20 05:42:15;;;;;;;3.00;2.30;;;12.50;99.90;;;;;;6068319;23;20214;-76
2022/09/20 05:44:55;;;;;;;2.20;1.75;;;12.50;99.90;;;;;;6070609;23;20218;-76
2022/09/20 05:47:34;;;;;;;1.80;1.65;;;12.50;99.90;;;;;;6070269;23;20218;-76
2022/09/20 05:50:16;;;;;;;2.20;1.40;;;12.60;99.90;;;;;;6070803;23;20207;-76
2022/09/20 05:52:56;;;;;;;1.55;1.45;;;12.60;99.90;;;;;;6070893;23;20259;-76
2022/09/20 05:56:02;;;;;;;1.77;1.58;;;12.60;99.90;;;;;;6070752;23;20954;-76
2022/09/20 05:58:44;;;;;;;2.10;1.75;;;12.60;99.90;;;;;;6070026;23;20211;-76
2022/09/20 06:01:20;;;;;;;2.88;2.67;;;12.70;99.90;;;;;;6068765;23;20224;-76
2022/09/20 06:03:53;;;;;;;3.80;2.67;;;12.70;99.90;;;;;;6069553;23;20262;-77
2022/09/20 06:06:25;;;;;;;2.92;2.58;;;12.70;99.90;;;;;;6069626;23;20208;-76
2022/09/20 06:09:33;;;;;;;5.70;3.40;;;12.80;99.90;;;;;;6070250;23;20272;-77
2022/09/20 06:12:35;;;;;;;3.40;3.10;;;12.80;99.90;;;;;;6069752;23;20208;-75
2022/09/20 06:15:14;;;;;;;4.43;3.97;;;12.80;99.90;;;;;;6009817;23;20205;-75
2022/09/20 06:17:55;;;;;;;4.60;4.03;;;12.80;99.90;;;;;;6063247;23;20224;-76
2022/09/20 06:20:30;;;;;;;2.42;2.00;;;12.80;99.90;;;;;;6068686;23;20196;-75
2022/09/20 06:23:47;;;;;;;3.13;1.63;;;12.90;99.90;;;;;;6069671;23;20211;-76
2022/09/20 06:29:44;;;;;;;2.63;2.15;;;12.90;99.90;;;;;;6026587;23;20192;-77
2022/09/20 06:32:16;;;;;;;2.67;2.45;;;13.00;99.90;;;;;;6069416;23;20286;-76
2022/09/20 06:34:43;;;;;;;3.13;2.83;;;13.00;99.90;;;;;;6069473;23;20200;-77
2022/09/20 06:43:05;;;;;;;2.15;1.90;;;13.00;99.90;;;;;;6068938;23;20219;-75
2022/09/20 06:45:34;;;;;;;2.85;2.38;;;13.10;99.90;;;;;;6069619;23;20283;-76
2022/09/20 06:48:04;;;;;;;2.95;2.65;;;13.10;99.90;;;;;;6068935;23;20211;-76
2022/09/20 06:50:35;;;;;;;2.55;2.30;;;13.10;99.90;;;;;;6069186;23;20200;-77
2022/09/20 06:53:02;;;;;;;2.30;2.10;;;13.10;99.90;;;;;;6068775;23;20200;-76
2022/09/20 06:55:33;;;;;;;3.80;2.58;;;13.20;99.90;;;;;;6068973;23;20207;-76
2022/09/20 06:58:01;;;;;;;2.90;2.70;;;13.20;99.90;;;;;;6068210;23;20287;-77
2022/09/20 07:00:29;;;;;;;5.03;2.20;;;13.20;99.90;;;;;;6069032;23;20224;-79
2022/09/20 07:03:01;;;;;;;3.00;2.58;;;13.30;99.90;;;;;;6069618;23;20267;-80
2022/09/20 07:05:28;;;;;;;2.38;2.17;;;13.30;99.90;;;;;;6069438;23;20196;-79
2022/09/20 07:07:57;;;;;;;3.47;3.17;;;13.30;99.90;;;;;;6069461;23;20228;-79
2022/09/20 07:13:12;;;;;;;2.97;2.05;;;13.30;99.90;;;;;;6066228;23;20231;-79
2022/09/20 07:15:40;;;;;;;2.22;1.80;;;13.30;99.90;;;;;;6069019;23;20200;-79
2022/09/20 07:18:08;;;;;;;2.20;1.60;;;13.30;99.90;;;;;;6068286;23;20216;-79
2022/09/20 07:20:35;;;;;;;3.40;1.80;;;13.30;99.90;;;;;;6068088;23;20271;-78
2022/09/20 07:23:04;;;;;;;2.70;1.60;;;13.30;99.90;;;;;;6069123;23;20232;-78
2022/09/20 07:25:31;;;;;;;2.20;2.00;;;13.30;99.90;;;;;;6068812;23;20196;-78
2022/09/20 07:27:58;;;;;;;1.75;1.65;;;13.30;99.90;;;;;;6069480;23;20287;-79
2022/09/20 07:30:26;;;;;;;3.80;2.42;;;13.30;99.90;;;;;;6068492;23;20228;-77
2022/09/20 07:32:52;;;;;;;7.10;2.67;;;13.30;99.90;;;;;;6069233;23;20205;-79
2022/09/20 07:35:21;;;;;;;7.40;2.47;;;13.30;99.90;;;;;;6068996;23;20204;-79
2022/09/20 07:37:48;;;;;;;3.60;2.60;;;13.30;99.90;;;;;;6069435;23;20242;-79
2022/09/20 07:40:15;;;;;;;6.13;3.97;;;13.30;99.90;;;;;;6068645;23;20279;-79
2022/09/20 07:42:44;;;;;;;3.35;3.08;;;13.30;99.90;;;;;;6069544;23;20204;-79
2022/09/20 07:45:14;;;;;;;4.50;3.08;;;13.30;99.90;;;;;;6069301;23;20217;-78
2022/09/20 07:47:43;;;;;;;5.25;3.65;;;13.30;99.90;;;;;;6069479;23;20231;-78
2022/09/20 07:50:10;;;;;;;4.13;3.60;;;13.30;99.90;;;;;;6068154;23;20728;-77
2022/09/20 07:52:39;;;;;;;3.30;2.90;;;13.40;99.90;;;;;;6068914;23;20215;-76
2022/09/20 07:55:06;;;;;;;2.67;2.35;;;13.40;99.90;;;;;;6069038;23;20208;-77
2022/09/20 07:57:36;;;;;;;2.15;2.05;;;13.50;99.90;;;;;;6068858;23;20223;-76
2022/09/20 08:00:05;;;;;;;2.80;1.60;;;13.50;99.90;;;;;;6070139;23;20508;-78
2022/09/20 08:02:33;;;;;;;3.90;1.90;;;13.50;99.90;;;;;;6068654;23;20226;-77
2022/09/20 08:05:00;;;;;;;1.80;1.67;;;13.60;99.90;;;;;;6068648;23;20224;-79
2022/09/20 08:07:29;;;;;;;1.85;1.60;;;13.60;99.90;;;;;;6067322;23;20704;-76
2022/09/20 08:09:58;;;;;;;1.90;1.70;;;13.70;99.90;;;;;;6069162;23;20200;-75
2022/09/20 08:12:25;;;;;;;2.78;1.75;;;13.70;99.90;;;;;;6067942;23;20211;-76
2022/09/20 08:14:52;;;;;;;2.60;2.22;;;13.80;99.90;;;;;;6055069;23;20732;-78
2022/09/20 08:17:19;;;;;;;2.95;2.40;;;13.80;99.90;;;;;;6067630;23;20493;-76
2022/09/20 08:19:46;;;;;;;1.52;1.40;;;13.90;99.90;;;;;;6068837;23;20628;-77
2022/09/20 08:22:13;;;;;;;1.63;1.52;;;13.90;99.90;;;;;;6068784;23;20242;-77
2022/09/20 08:24:42;;;;;;;2.90;2.03;;;14.00;99.90;;;;;;6068253;23;20220;-76
2022/09/20 08:27:11;;;;;;;1.42;1.33;;;14.00;99.90;;;;;;6068724;23;20200;-78
2022/09/20 08:29:39;;;;;;;2.75;2.55;;;14.00;99.90;;;;;;6067873;23;20204;-75
2022/09/20 08:32:06;;;;;;;4.30;3.43;;;14.10;99.90;;;;;;6068591;23;20219;-76
2022/09/20 08:34:33;;;;;;;5.38;4.22;;;14.20;99.90;;;;;;6068133;23;20503;-76
2022/09/20 08:37:00;;;;;;;7.20;4.22;;;14.20;99.90;;;;;;6068236;23;20192;-79
2022/09/20 08:39:27;;;;;;;4.23;3.60;;;14.30;99.90;;;;;;6068017;23;20204;-77
2022/09/20 08:41:57;;;;;;;3.53;3.15;;;14.30;99.90;;;;;;6068599;23;20467;-77
2022/09/20 08:44:31;;;;;;;6.50;2.55;;;14.40;99.90;;;;;;6067477;23;20212;-77
2022/09/20 08:47:08;;;;;;;3.13;2.83;;;14.50;99.90;;;;;;6068485;23;20231;-76
2022/09/20 08:49:35;;;;;;;2.90;2.40;;;14.50;99.90;;;;;;6068168;23;20254;-78
2022/09/20 08:52:04;;;;;;;6.37;2.47;;;14.60;99.90;;;;;;6068318;23;20932;-76
2022/09/20 08:54:33;;;;;;;1.70;1.52;;;14.60;99.90;;;;;;6068098;23;20468;-78
2022/09/20 08:57:06;;;;;;;3.07;2.20;;;14.70;99.90;;;;;;6068297;23;20203;-76
2022/09/20 08:59:34;;;;;;;3.00;1.77;;;14.70;99.90;;;;;;6068003;23;20440;-75
2022/09/20 09:02:01;;;;;;;2.90;1.70;;;14.80;99.90;;;;;;6068253;23;20916;-77
2022/09/20 09:04:35;;;;;;;1.40;1.30;;;14.80;99.90;;;;;;6067129;23;20451;-76
2022/09/20 09:07:03;;;;;;;1.70;1.60;;;14.80;99.90;;;;;;6068303;23;20439;-79
2022/09/20 09:09:32;;;;;;;1.23;1.10;;;14.90;99.90;;;;;;6068308;23;20447;-79
2022/09/20 09:11:59;;;;;;;1.47;1.30;;;14.90;99.90;;;;;;6068271;23;20940;-78
2022/09/20 09:17:17;;;;;;;3.93;3.10;;;15.10;99.90;;;;;;6068520;23;20435;-77
2022/09/20 09:19:47;;;;;;;3.47;2.77;;;15.10;99.90;;;;;;6067468;23;20528;-76
2022/09/20 09:22:22;;;;;;;3.03;2.10;;;15.20;99.90;;;;;;6068324;23;20441;-79
2022/09/20 09:25:26;;;;;;;1.93;1.40;;;15.20;99.90;;;;;;6067746;23;20428;-78
2022/09/20 09:27:55;;;;;;;1.67;1.10;;;15.30;99.90;;;;;;6067912;23;20499;-78
2022/09/20 09:30:26;;;;;;;1.17;1.07;;;15.40;99.90;;;;;;6068107;23;20440;-79
2022/09/20 09:33:21;;;;;;;2.00;1.30;;;15.40;99.90;;;;;;6067750;23;20736;-76
2022/09/20 09:35:57;;;;;;;3.43;1.10;;;15.50;99.90;;;;;;6067822;23;20441;-78
2022/09/20 09:38:27;;;;;;;2.80;2.20;;;15.60;99.90;;;;;;6068528;23;20531;-78
2022/09/20 09:40:56;;;;;;;1.47;1.37;;;15.60;99.90;;;;;;6067156;23;20872;-76
2022/09/20 09:43:27;;;;;;;1.60;1.40;;;15.70;99.90;;;;;;6067609;23;20444;-78
2022/09/20 09:45:56;;;;;;;5.33;1.93;;;15.80;99.90;;;;;;6067539;23;20491;-78
2022/09/20 09:48:27;;;;;;;1.87;1.50;;;15.80;99.90;;;;;;6067173;23;20737;-78
2022/09/20 09:51:09;;;;;;;2.73;1.67;;;15.90;99.90;;;;;;6052518;23;20893;-77
2022/09/20 09:53:36;;;;;;;3.03;1.43;;;15.90;99.90;;;;;;6066570;23;20440;-76
2022/09/20 09:56:20;;;;;;;2.30;1.33;;;16.00;99.90;;;;;;6068478;23;20433;-76
2022/09/20 09:59:05;;;;;;;1.97;1.53;;;16.00;99.90;;;;;;6067709;23;20439;-76
2022/09/20 10:01:40;;;;;;;1.43;1.33;;;16.10;99.90;;;;;;6067846;23;20446;-76
2022/09/20 10:04:17;;;;;;;2.40;2.20;;;16.10;99.90;;;;;;6067510;23;20434;-77
2022/09/20 10:06:50;;;;;;;2.50;2.23;;;16.10;99.90;;;;;;6066282;23;20470;-76
2022/09/20 10:09:36;;;;;;;1.90;1.80;;;16.20;99.90;;;;;;6067810;23;20511;-77
2022/09/20 10:12:23;;;;;;;3.27;3.00;;;16.30;99.90;;;;;;6067057;23;20440;-77
2022/09/20 10:15:01;;;;;;;4.30;3.30;;;16.40;99.90;;;;;;6065475;23;20797;-79
2022/09/20 10:17:46;;;;;;;5.83;2.40;;;16.50;99.90;;;;;;6068238;23;20436;-79
2022/09/20 10:20:30;;;;;;;3.00;2.23;;;16.60;99.90;;;;;;6068158;23;20789;-79
2022/09/20 10:23:09;;;;;;;2.47;2.27;;;16.60;99.90;;;;;;6067415;23;20745;-79
2022/09/20 10:25:43;;;;;;;3.83;2.00;;;16.70;99.90;;;;;;6068318;23;20449;-79
2022/09/20 10:28:30;;;;;;;4.80;2.27;;;16.80;99.90;;;;;;6067300;23;20458;-76
2022/09/20 10:31:07;;;;;;;2.33;1.97;;;16.80;99.90;;;;;;6069317;23;20438;-79
2022/09/20 10:33:44;;;;;;;3.73;3.40;;;16.80;99.90;;;;;;6069992;23;20441;-79
2022/09/20 10:36:24;;;;;;;2.50;2.30;;;16.90;99.90;;;;;;6069379;23;20508;-76
2022/09/20 10:38:58;;;;;;;4.70;3.10;;;17.00;99.90;;;;;;6067820;23;20504;-76
2022/09/20 10:44:52;;;;;;;3.43;3.07;;;17.00;99.90;;;;;;6069630;23;20504;-79
2022/09/20 10:47:25;;;;;;;4.27;2.97;;;17.00;99.90;;;;;;6069663;23;20468;-79
2022/09/20 10:50:04;;;;;;;2.50;2.30;;;17.00;99.90;;;;;;6068480;23;20504;-76
2022/09/20 10:52:49;;;;;;;5.73;2.23;;;17.00;99.90;;;;;;6069231;23;20442;-77
2022/09/20 10:55:31;;;;;;;3.93;2.90;;;16.90;99.90;;;;;;6070388;23;20444;-76
2022/09/20 10:58:23;;;;;;;2.53;2.00;;;16.90;99.90;;;;;;6070910;23;20458;-76
2022/09/20 11:01:01;;;;;;;2.47;2.30;;;16.80;99.90;;;;;;6075683;23;20441;-76
2022/09/20 11:03:43;;;;;;;2.40;2.20;;;16.80;99.90;;;;;;6071422;23;20514;-76
2022/09/20 11:06:23;;;;;;;3.50;2.80;;;16.80;99.90;;;;;;6068381;23;20958;-75
2022/09/20 11:08:56;;;;;;;6.07;4.43;;;16.70;99.90;;;;;;6069312;23;20436;-78
2022/09/20 11:11:28;;;;;;;4.73;3.00;;;16.60;99.90;;;;;;6068587;23;20441;-78
2022/09/20 11:14:03;;;;;;;4.10;2.80;;;16.50;99.90;;;;;;6069221;23;20441;-77
2022/09/20 11:16:36;;;;;;;2.87;2.33;;;16.30;99.90;;;;;;6069873;23;20432;-76
2022/09/20 11:19:10;;;;;;;2.40;1.53;;;16.10;99.90;;;;;;6069322;23;20467;-75
2022/09/20 11:21:40;;;;;;;1.83;1.30;;;16.00;99.90;;;;;;6068238;23;20428;-78
2022/09/20 11:24:16;;;;;;;2.20;1.47;;;15.80;99.90;;;;;;6069102;23;20433;-78
2022/09/20 11:26:49;;;;;;;3.07;2.00;;;15.60;99.90;;;;;;6069108;23;20443;-77
2022/09/20 11:29:22;;;;;;;1.53;1.40;;;15.40;99.90;;;;;;6069657;23;20459;-74
2022/09/20 11:31:53;;;;;;;3.23;2.03;;;15.30;99.90;;;;;;6069074;23;20459;-79
2022/09/20 11:34:25;;;;;;;2.47;1.50;;;15.20;99.90;;;;;;6069489;23;20435;-79
2022/09/20 11:36:57;;;;;;;2.53;1.60;;;15.10;99.90;;;;;;6068760;23;20499;-79
2022/09/20 11:39:30;;;;;;;1.60;1.20;;;14.90;99.90;;;;;;6069291;23;20437;-77
2022/09/20 11:42:00;;;;;;;2.00;1.80;;;14.80;99.90;;;;;;6068657;23;20479;-76
2022/09/20 11:44:27;;;;;;;3.57;1.90;;;14.80;99.90;;;;;;6069250;23;20939;-76
2022/09/20 11:46:58;;;;;;;2.50;1.80;;;14.70;99.90;;;;;;6068102;23;20437;-76
2022/09/20 11:49:29;;;;;;;1.53;1.43;;;14.60;99.90;;;;;;6068198;23;20437;-78
2022/09/20 11:52:25;;;;;;;1.70;1.60;;;14.60;99.90;;;;;;6068347;23;20488;-78
2022/09/20 11:55:34;;;;;;;2.37;1.97;;;14.60;99.90;;;;;;6055821;23;20432;-76
2022/09/20 11:58:06;;;;;;;2.80;2.10;;;14.60;99.90;;;;;;6064431;23;20432;-76
2022/09/20 12:00:36;;;;;;;4.13;1.70;;;14.60;99.90;;;;;;6068736;23;20507;-76
2022/09/20 12:03:06;;;;;;;2.23;1.70;;;14.60;99.90;;;;;;6067370;23;20448;-78
2022/09/20 12:05:36;;;;;;;2.03;1.93;;;14.60;99.90;;;;;;6068802;23;20488;-79
2022/09/20 12:08:07;;;;;;;2.80;2.00;;;14.60;99.90;;;;;;6067957;23;20446;-78
2022/09/20 12:10:38;;;;;;;2.13;1.93;;;14.60;99.90;;;;;;6069175;23;20888;-76
2022/09/20 12:13:20;;;;;;;3.13;2.30;;;14.70;99.90;;;;;;6068741;23;20502;-79
2022/09/20 12:16:04;;;;;;;2.47;2.27;;;14.80;99.90;;;;;;6053754;23;20451;-77
2022/09/20 12:18:48;;;;;;;2.47;2.23;;;14.80;99.90;;;;;;6068677;23;20456;-79
2022/09/20 12:21:19;;;;;;;2.57;2.37;;;14.80;99.90;;;;;;6068513;23;20480;-79
2022/09/20 12:24:17;;;;;;;2.87;2.60;;;14.90;99.90;;;;;;6068973;23;20444;-77
2022/09/20 12:26:46;;;;;;;3.00;2.40;;;14.90;99.90;;;;;;6068486;23;20432;-77
2022/09/20 12:29:50;;;;;;;2.70;2.50;;;15.00;99.90;;;;;;6067814;23;20440;-78
2022/09/20 12:32:49;;;;;;;2.80;2.60;;;15.00;99.90;;;;;;6068666;23;20432;-79
2022/09/20 12:35:56;;;;;;;4.10;3.70;;;15.10;99.90;;;;;;6067361;23;20444;-76
2022/09/20 12:38:34;;;;;;;2.80;2.60;;;15.20;99.90;;;;;;6068238;23;20702;-76
2022/09/20 12:41:06;;;;;;;4.17;2.60;;;15.20;99.90;;;;;;6068735;23;20725;-77
2022/09/20 12:43:39;;;;;;;3.03;2.80;;;15.20;99.90;;;;;;6067607;23;20527;-79
2022/09/20 12:46:06;;;;;;;1.90;1.80;;;15.30;99.90;;;;;;6068783;23;20513;-79
2022/09/20 12:48:37;;;;;;;3.17;1.83;;;15.30;99.90;;;;;;6068066;23;20433;-79
2022/09/20 12:54:06;;;;;;;2.43;1.77;;;15.30;99.90;;;;;;6068338;23;20549;-78
2022/09/20 12:56:35;;;;;;;2.20;1.90;;;15.40;99.90;;;;;;6053892;23;20432;-75
2022/09/20 12:59:06;;;;;;;4.20;3.40;;;15.40;99.90;;;;;;6066886;23;20437;-75
2022/09/20 13:01:38;;;;;;;5.27;3.07;;;15.50;99.90;;;;;;6067724;23;20507;-78
2022/09/20 13:04:55;;;;;;;2.00;1.47;;;15.50;99.90;;;;;;6067916;23;20736;-77
2022/09/20 13:07:46;;;;;;;1.60;1.30;;;15.50;99.90;;;;;;6067809;23;20432;-78
2022/09/20 13:10:33;;;;;;;3.00;1.43;;;15.40;99.90;;;;;;6066784;23;20432;-77
2022/09/20 13:13:07;;;;;;;1.83;0.90;;;15.40;99.90;;;;;;6068320;23;20444;-78
2022/09/20 13:15:35;;;;;;;1.20;1.00;;;15.20;99.90;;;;;;6067952;23;20419;-78
2022/09/20 13:18:03;;;;;;;1.53;1.10;;;15.10;99.90;;;;;;6068443;23;20432;-75
2022/09/20 13:20:33;;;;;;;1.70;1.60;;;15.00;99.90;;;;;;6067803;23;20483;-75
2022/09/20 13:23:03;;;;;;;1.57;1.37;;;15.00;99.90;;;;;;6068040;23;20444;-76
2022/09/20 13:25:32;;;;;;;2.80;1.60;;;15.00;99.90;;;;;;6066399;23;20499;-75
2022/09/20 13:28:07;;;;;;;2.20;1.60;;;15.00;99.90;;;;;;6067941;23;20972;-77
2022/09/20 13:30:34;;;;;;;1.77;1.63;;;15.00;99.90;;;;;;6066345;23;20959;-78
2022/09/20 13:33:16;;;;;;;2.10;1.90;;;15.00;99.90;;;;;;6068166;23;20817;-77
2022/09/20 13:35:45;;;;;;;1.40;1.30;;;15.00;99.90;;;;;;6067905;23;20428;-76
2022/09/20 13:38:19;;;;;;;1.67;1.50;;;15.00;99.90;;;;;;6067904;23;20930;-76
2022/09/20 13:40:47;;;;;;;1.40;1.30;;;15.00;99.90;;;;;;6067938;23;20428;-76
2022/09/20 13:43:27;;;;;;;1.60;1.17;;;15.10;99.90;;;;;;6067733;23;20519;-76
2022/09/20 13:45:56;;;;;;;1.30;1.20;;;15.10;99.90;;;;;;6068720;23;20432;-79
2022/09/20 13:48:25;;;;;;;1.60;1.50;;;15.20;99.90;;;;;;6068192;23;20507;-77
2022/09/20 13:50:52;;;;;;;2.03;1.10;;;15.20;99.90;;;;;;6067979;23;20432;-76
2022/09/20 13:53:23;;;;;;;1.63;0.93;;;15.30;99.90;;;;;;6068236;23;20448;-77
2022/09/20 13:55:53;;;;;;;0.80;0.80;;;15.30;99.90;;;;;;6067875;23;20432;-76
2022/09/20 13:58:23;;;;;;;1.53;0.70;;;15.40;99.90;;;;;;6068379;23;20463;-78
2022/09/20 14:00:53;;;;;;;1.17;1.07;;;15.40;99.90;;;;;;6067304;23;20445;-76